Sawbridgeworth, United Kingdom
Current Conditions -  °F | °C
As of 8:50 AM on Monday 22 Dec 2014 (Local Time) from EGSS Reporting Station
Broken Clouds Broken Clouds  
Wind Chill: 13°   Ceiling: 2200
Heat Index: 13°   Visibility: 6mi
Dew Point:   Wind: 22mph
Humidity: 77%   Direction: 250°WSW
Pressure: 30"   Gusts: 36mph
Location:  51.8°N, 0.14°E
Report Text: EGSS 220850Z 25019G31KT 9999 BKN022 BKN028 13/09 Q1016
Loading
Personal Weather Stations






























Interactive Weather Map New forecast layout! Learn more

10-Day Weather Forecast

Advertisements
Track Severe Weather on mobile